createdAt,value
2022-12-03T00:15:53.550Z,0
2022-12-03T00:35:53.412Z,0
2022-12-03T00:55:53.419Z,0
2022-12-03T01:15:53.542Z,0
2022-12-03T01:35:53.366Z,0
2022-12-03T01:55:53.354Z,0
2022-12-03T02:15:53.416Z,0
2022-12-03T02:35:53.271Z,0
2022-12-03T02:55:53.272Z,0
2022-12-03T03:15:53.287Z,0
2022-12-03T03:35:53.219Z,0
2022-12-03T03:55:53.184Z,0
2022-12-03T04:15:53.167Z,0
2022-12-03T04:35:53.318Z,0
2022-12-03T04:55:53.138Z,0
2022-12-03T05:15:53.299Z,0
2022-12-03T05:35:53.110Z,0
2022-12-03T05:55:53.126Z,0
2022-12-03T06:15:53.124Z,0
2022-12-03T06:35:53.040Z,4
2022-12-03T06:55:53.000Z,41
2022-12-03T07:15:53.088Z,151
2022-12-03T07:35:52.985Z,319
2022-12-03T07:55:52.972Z,586
2022-12-03T08:15:53.236Z,838
2022-12-03T08:35:52.924Z,1184
2022-12-03T08:55:52.931Z,2085
2022-12-03T09:15:52.856Z,1412
2022-12-03T09:35:52.904Z,1389
2022-12-03T09:55:52.829Z,1764
2022-12-03T10:15:52.805Z,2149
2022-12-03T10:35:52.785Z,1552
2022-12-03T10:55:52.872Z,989
2022-12-03T11:15:52.802Z,997
2022-12-03T11:35:52.804Z,869
2022-12-03T11:55:52.705Z,715
2022-12-03T12:15:52.755Z,819
2022-12-03T12:35:52.652Z,736
2022-12-03T12:55:52.745Z,773
2022-12-03T13:15:52.686Z,762
2022-12-03T13:35:52.647Z,247
2022-12-03T13:55:52.574Z,190
2022-12-03T14:35:52.549Z,118
2022-12-03T14:55:52.566Z,47
2022-12-03T15:15:52.546Z,5
2022-12-03T15:35:52.483Z,0
2022-12-03T15:55:52.488Z,0
2022-12-03T16:35:52.455Z,0
2022-12-03T16:55:52.480Z,0
2022-12-03T17:15:52.453Z,0
2022-12-03T17:35:52.334Z,0
2022-12-03T17:55:57.298Z,0
2022-12-03T18:15:52.455Z,0
2022-12-03T18:35:52.275Z,0
2022-12-03T18:55:52.259Z,0
2022-12-03T19:35:52.219Z,0
2022-12-03T19:55:52.222Z,0
2022-12-03T20:15:52.215Z,0
2022-12-03T20:35:52.208Z,0
2022-12-03T20:55:59.274Z,0
2022-12-03T21:15:59.106Z,0
2022-12-03T21:35:59.108Z,0
2022-12-03T21:55:59.092Z,0
2022-12-03T22:15:52.139Z,0
2022-12-03T22:35:52.031Z,0
2022-12-03T22:55:52.035Z,0
2022-12-03T23:15:52.070Z,0
2022-12-03T23:35:51.972Z,0
2022-12-03T23:55:52.090Z,0
